createdAt,value
2019-01-29T00:01:13.700Z,98795.05
2019-01-29T00:03:42.355Z,98847.90
2019-01-29T00:06:11.079Z,98848.72
2019-01-29T00:08:39.004Z,98844.64
2019-01-29T00:11:07.676Z,98851.20
2019-01-29T00:13:35.592Z,98826.91
2019-01-29T00:16:04.252Z,98856.72
2019-01-29T00:18:32.962Z,98863.67
2019-01-29T00:21:01.663Z,98870.58
2019-01-29T00:23:30.364Z,98868.06
2019-01-29T00:25:59.070Z,98864.73
2019-01-29T00:28:27.780Z,98872.52
2019-01-29T00:30:56.491Z,98875.31
2019-01-29T00:33:25.278Z,98884.45
2019-01-29T00:35:53.235Z,98883.69
2019-01-29T00:38:22.194Z,98880.23
2019-01-29T00:40:50.895Z,98887.52
2019-01-29T00:43:20.427Z,98891.66
2019-01-29T00:45:49.152Z,98889.09
2019-01-29T00:48:18.106Z,98888.83
2019-01-29T00:50:48.010Z,98888.06
2019-01-29T00:53:16.701Z,98885.47
2019-01-29T00:55:45.405Z,98887.80
2019-01-29T00:58:13.327Z,98890.09
2019-01-29T01:00:41.963Z,98896.42
2019-01-29T01:03:09.902Z,98901.91
2019-01-29T01:05:38.535Z,98899.30
2019-01-29T01:08:06.444Z,98908.80
2019-01-29T01:10:35.630Z,98903.94
2019-01-29T01:13:04.375Z,98905.85
2019-01-29T01:15:32.297Z,98911.67
2019-01-29T01:18:00.941Z,98909.11
2019-01-29T01:20:28.855Z,98917.66
2019-01-29T01:22:57.509Z,98936.89
2019-01-29T01:25:25.411Z,98931.64
2019-01-29T01:27:54.053Z,98933.44
2019-01-29T01:30:22.945Z,98934.43
2019-01-29T01:32:51.947Z,98935.77
2019-01-29T01:35:20.655Z,98940.38
2019-01-29T01:37:49.381Z,98940.83
2019-01-29T01:40:18.803Z,98944.01
2019-01-29T01:42:47.457Z,98944.01
2019-01-29T01:45:16.175Z,98943.63
2019-01-29T01:47:44.128Z,98940.56
2019-01-29T01:50:13.333Z,98949.95
2019-01-29T01:52:42.045Z,98945.54
2019-01-29T01:55:12.841Z,98954.92
2019-01-29T01:57:41.551Z,98953.20
2019-01-29T02:00:18.519Z,98954.54
2019-01-29T02:02:47.246Z,98948.83
2019-01-29T02:05:15.949Z,98953.80
2019-01-29T02:07:43.848Z,98955.15
2019-01-29T02:10:26.953Z,98955.23
2019-01-29T02:12:55.669Z,98955.34
2019-01-29T02:15:24.390Z,98960.31
2019-01-29T02:17:52.313Z,98962.53
2019-01-29T02:20:20.983Z,98963.49
2019-01-29T02:22:48.907Z,98962.61
2019-01-29T02:25:17.550Z,98968.94
2019-01-29T02:27:46.279Z,98967.59
2019-01-29T02:30:15.440Z,98968.94
2019-01-29T02:32:44.310Z,98968.58
2019-01-29T02:35:12.525Z,98973.56
2019-01-29T02:37:41.129Z,98981.60
2019-01-29T02:40:15.704Z,98972.68
2019-01-29T02:42:44.414Z,98970.95
2019-01-29T02:45:13.702Z,98980.83
2019-01-29T02:47:42.403Z,98985.23
2019-01-29T02:50:11.587Z,98982.17
2019-01-29T02:52:40.302Z,98986.66
2019-01-29T02:55:10.322Z,98988.88
2019-01-29T02:57:39.035Z,98988.88
2019-01-29T03:00:11.261Z,98990.22
2019-01-29T03:02:40.623Z,98993.28
2019-01-29T03:05:09.947Z,98990.22
2019-01-29T03:07:38.665Z,98989.72
2019-01-29T03:10:09.564Z,98989.34
2019-01-29T03:12:38.605Z,98995.97
2019-01-29T03:15:12.408Z,98996.35
2019-01-29T03:17:41.146Z,99003.05
2019-01-29T03:20:09.670Z,99012.83
2019-01-29T03:22:38.295Z,99009.75
2019-01-29T03:25:08.950Z,99013.39
2019-01-29T03:27:37.658Z,99015.12
2019-01-29T03:30:07.652Z,99020.94
2019-01-29T03:32:36.363Z,99021.05
2019-01-29T03:35:06.028Z,99024.58
2019-01-29T03:37:34.776Z,99025.53
2019-01-29T03:40:02.700Z,99027.75
2019-01-29T03:42:31.418Z,99032.73
2019-01-29T03:44:59.321Z,99021.62
2019-01-29T03:47:28.018Z,99019.89
2019-01-29T03:49:56.773Z,99025.36
2019-01-29T03:52:24.685Z,99032.07
2019-01-29T03:54:53.376Z,99032.07
2019-01-29T03:57:22.096Z,99033.02
2019-01-29T03:59:51.092Z,99029.00
2019-01-29T04:02:19.812Z,99034.86
2019-01-29T04:04:48.538Z,99039.84
2019-01-29T04:07:17.264Z,99041.56
2019-01-29T04:09:45.979Z,99042.90
2019-01-29T04:12:14.942Z,99043.28
2019-01-29T04:14:43.620Z,99044.52
2019-01-29T04:17:14.346Z,99038.09
2019-01-29T04:19:43.040Z,99045.18
2019-01-29T04:22:11.832Z,99048.64
2019-01-29T04:24:39.861Z,99041.05
2019-01-29T04:27:08.549Z,99051.31
2019-01-29T04:29:36.466Z,99053.12
2019-01-29T04:32:05.448Z,99055.91
2019-01-29T04:34:34.444Z,99058.59
2019-01-29T04:37:03.327Z,99053.33
2019-01-29T04:39:31.264Z,99056.86
2019-01-29T04:42:00.248Z,99068.08
2019-01-29T04:44:38.548Z,99069.49
2019-01-29T04:47:07.246Z,99069.11
2019-01-29T04:49:36.302Z,99075.81
2019-01-29T04:52:05.017Z,99067.48
2019-01-29T04:54:33.743Z,99076.88
2019-01-29T04:57:02.767Z,99070.17
2019-01-29T04:59:31.843Z,99084.45
2019-01-29T05:02:00.561Z,99081.66
2019-01-29T05:04:29.371Z,99088.65
2019-01-29T05:06:57.282Z,99079.65
2019-01-29T05:09:25.963Z,99082.72
2019-01-29T05:11:54.778Z,99088.08
2019-01-29T05:14:22.736Z,99078.20
2019-01-29T05:16:51.420Z,99080.88
2019-01-29T05:19:20.139Z,99083.49
2019-01-29T05:21:48.239Z,99082.15
2019-01-29T05:24:16.944Z,99078.52
2019-01-29T05:26:45.251Z,99077.17
2019-01-29T05:29:13.891Z,99081.55
2019-01-29T05:31:42.608Z,99081.09
2019-01-29T05:34:11.310Z,99077.52
2019-01-29T05:36:40.026Z,99076.19
2019-01-29T05:39:08.936Z,99081.09
2019-01-29T05:41:37.552Z,99082.42
2019-01-29T05:44:06.297Z,99087.90
2019-01-29T05:46:34.195Z,99086.34
2019-01-29T05:49:02.852Z,99082.32
2019-01-29T05:51:31.639Z,99092.86
2019-01-29T05:53:59.536Z,99092.65
2019-01-29T05:56:28.170Z,99094.65
2019-01-29T05:58:56.876Z,99094.96
2019-01-29T06:01:25.179Z,99092.45
2019-01-29T06:03:54.123Z,99098.02
2019-01-29T06:06:23.082Z,99098.75
2019-01-29T06:08:51.813Z,99103.36
2019-01-29T06:11:20.537Z,99098.73
2019-01-29T06:13:48.524Z,99103.14
2019-01-29T06:16:17.436Z,99100.00
2019-01-29T06:18:46.335Z,99099.50
2019-01-29T06:21:15.296Z,99102.11
2019-01-29T06:23:44.006Z,99099.70
2019-01-29T06:26:12.890Z,99108.30
2019-01-29T06:28:41.863Z,99107.92
2019-01-29T06:31:10.549Z,99104.17
2019-01-29T06:33:39.746Z,99104.66
2019-01-29T06:36:11.222Z,99114.16
2019-01-29T06:38:39.920Z,99117.13
2019-01-29T06:41:08.620Z,99122.27
2019-01-29T06:43:36.539Z,99114.98
2019-01-29T06:46:05.247Z,99119.23
2019-01-29T06:48:33.997Z,99121.53
2019-01-29T06:51:02.066Z,99125.63
2019-01-29T06:53:30.727Z,99136.86
2019-01-29T06:55:58.642Z,99124.02
2019-01-29T06:58:27.264Z,99125.93
2019-01-29T07:00:56.014Z,99130.94
2019-01-29T07:03:23.936Z,99129.30
2019-01-29T07:05:52.548Z,99136.11
2019-01-29T07:08:20.454Z,99137.45
2019-01-29T07:10:49.087Z,99129.43
2019-01-29T07:13:17.002Z,99138.83
2019-01-29T07:16:03.624Z,99143.70
2019-01-29T07:18:39.293Z,99143.81
2019-01-29T07:21:10.027Z,99140.36
2019-01-29T07:23:40.022Z,99133.27
2019-01-29T07:26:08.730Z,99146.67
2019-01-29T07:28:37.458Z,99152.04
2019-01-29T07:31:06.371Z,99150.23
2019-01-29T07:33:35.140Z,99155.78
2019-01-29T07:36:03.048Z,99154.15
2019-01-29T07:38:31.804Z,99165.93
2019-01-29T07:40:59.714Z,99159.22
2019-01-29T07:43:28.349Z,99159.12
2019-01-29T07:45:57.043Z,99157.59
2019-01-29T07:48:25.758Z,99157.98
2019-01-29T07:50:53.856Z,99159.70
2019-01-29T07:53:22.567Z,99156.07
2019-01-29T07:55:50.465Z,99158.75
2019-01-29T07:58:19.362Z,99158.75
2019-01-29T08:00:48.083Z,99155.19
2019-01-29T08:03:16.842Z,99155.08
2019-01-29T08:05:45.435Z,99159.11
2019-01-29T08:08:13.515Z,99163.52
2019-01-29T08:10:42.464Z,99163.52
2019-01-29T08:13:11.437Z,99163.13
2019-01-29T08:15:40.188Z,99166.20
2019-01-29T08:18:08.275Z,99166.12
2019-01-29T08:20:36.972Z,99163.13
2019-01-29T08:23:04.986Z,99174.35
2019-01-29T08:25:33.643Z,99170.72
2019-01-29T08:28:01.541Z,99175.59
2019-01-29T08:30:30.141Z,99173.86
2019-01-29T08:32:58.845Z,99178.37
2019-01-29T08:35:26.768Z,99178.87
2019-01-29T08:37:55.754Z,99182.89
2019-01-29T08:40:24.477Z,99177.99
2019-01-29T08:42:53.159Z,99184.23
2019-01-29T08:45:21.872Z,99186.31
2019-01-29T08:47:49.846Z,99186.14
2019-01-29T08:50:20.535Z,99187.87
2019-01-29T08:52:49.324Z,99192.28
2019-01-29T08:55:17.217Z,99187.66
2019-01-29T08:57:45.867Z,99185.36
2019-01-29T09:00:14.452Z,99185.17
2019-01-29T09:02:43.152Z,99187.86
2019-01-29T09:05:11.050Z,99184.78
2019-01-29T09:07:39.742Z,99186.52
2019-01-29T09:10:08.585Z,99182.10
2019-01-29T09:12:36.433Z,99186.13
2019-01-29T09:15:06.692Z,99186.63
2019-01-29T09:17:35.395Z,99189.20
2019-01-29T09:20:04.684Z,99189.58
2019-01-29T09:22:33.445Z,99191.31
2019-01-29T09:25:01.329Z,99191.66
2019-01-29T09:27:30.053Z,99187.28
2019-01-29T09:29:57.946Z,99188.13
2019-01-29T09:32:26.560Z,99186.52
2019-01-29T09:34:54.447Z,99188.24
2019-01-29T09:37:23.080Z,99189.09
2019-01-29T09:39:51.010Z,99186.90
2019-01-29T09:42:19.677Z,99182.38
2019-01-29T09:44:47.584Z,99191.31
2019-01-29T09:47:16.302Z,99185.06
2019-01-29T09:49:44.212Z,99181.53
2019-01-29T09:52:12.893Z,99183.34
2019-01-29T09:54:40.768Z,99186.52
2019-01-29T09:57:09.402Z,99186.52
2019-01-29T09:59:37.356Z,99186.52
2019-01-29T10:02:06.006Z,99186.70
2019-01-29T10:04:33.904Z,99184.51
2019-01-29T10:07:02.559Z,99180.56
2019-01-29T10:09:30.512Z,99181.90
2019-01-29T10:11:59.173Z,99178.48
2019-01-29T10:14:28.251Z,99179.44
2019-01-29T10:16:56.987Z,99180.11
2019-01-29T10:19:25.751Z,99178.56
2019-01-29T10:21:53.682Z,99180.96
2019-01-29T10:24:22.348Z,99175.31
2019-01-29T10:26:50.287Z,99171.02
2019-01-29T10:29:18.940Z,99174.75
2019-01-29T10:31:48.031Z,99174.83
2019-01-29T10:34:16.758Z,99167.84
2019-01-29T10:36:45.460Z,99171.02
2019-01-29T10:39:14.233Z,99170.14
2019-01-29T10:41:42.468Z,99165.73
2019-01-29T10:44:11.184Z,99167.56
2019-01-29T10:46:39.885Z,99164.49
2019-01-29T10:49:08.604Z,99158.74
2019-01-29T10:51:37.323Z,99153.77
2019-01-29T10:54:06.028Z,99156.45
2019-01-29T10:56:33.960Z,99149.36
2019-01-29T10:59:02.591Z,99148.52
2019-01-29T11:01:30.521Z,99148.90
2019-01-29T11:03:59.189Z,99146.22
2019-01-29T11:06:27.123Z,99146.67
2019-01-29T11:08:56.358Z,99143.04
2019-01-29T11:11:25.109Z,99138.24
2019-01-29T11:13:53.810Z,99146.22
2019-01-29T11:16:22.538Z,99141.13
2019-01-29T11:18:51.281Z,99134.43
2019-01-29T11:21:19.214Z,99131.75
2019-01-29T11:23:47.888Z,99133.86
2019-01-29T11:26:16.603Z,99129.84
2019-01-29T11:28:45.344Z,99129.84
2019-01-29T11:31:13.260Z,99124.48
2019-01-29T11:33:41.975Z,99120.06
2019-01-29T11:36:10.394Z,99112.02
2019-01-29T11:38:39.044Z,99108.95
2019-01-29T11:41:06.954Z,99107.13
2019-01-29T11:43:35.773Z,99103.98
2019-01-29T11:46:04.600Z,99099.64
2019-01-29T11:48:32.535Z,99105.00
2019-01-29T11:51:01.617Z,99105.89
2019-01-29T11:53:30.350Z,99101.97
2019-01-29T11:56:04.660Z,99099.36
2019-01-29T11:58:29.958Z,99093.05
2019-01-29T12:01:24.068Z,99093.54
2019-01-29T12:03:53.168Z,99089.52
2019-01-29T12:06:21.902Z,99086.84
2019-01-29T12:08:50.621Z,99083.27
2019-01-29T12:11:19.374Z,99083.66
2019-01-29T12:13:47.296Z,99081.94
2019-01-29T12:16:15.959Z,99081.37
2019-01-29T12:18:44.773Z,99079.25
2019-01-29T12:21:24.651Z,99077.91
2019-01-29T12:23:43.188Z,99077.16
2019-01-29T12:26:13.339Z,99076.76
2019-01-29T12:28:43.963Z,99074.06
2019-01-29T12:31:12.684Z,99075.00
2019-01-29T12:33:41.403Z,99070.21
2019-01-29T12:36:09.329Z,99072.89
2019-01-29T12:38:38.515Z,99065.40
2019-01-29T12:41:07.538Z,99062.11
2019-01-29T12:43:36.673Z,99054.11
2019-01-29T12:46:06.037Z,99059.14
2019-01-29T12:48:35.142Z,99054.11
2019-01-29T12:51:07.810Z,99058.10
2019-01-29T12:53:39.887Z,99065.73
2019-01-29T12:56:08.872Z,99059.33
2019-01-29T12:58:37.635Z,99003.08
2019-01-29T13:01:05.622Z,99048.55
2019-01-29T13:03:34.303Z,99048.08
2019-01-29T13:06:02.286Z,99034.20
2019-01-29T13:08:31.048Z,99038.92
2019-01-29T13:10:59.801Z,99036.09
2019-01-29T13:13:27.755Z,99042.41
2019-01-29T13:15:56.483Z,99033.79
2019-01-29T13:18:24.388Z,99033.06
2019-01-29T13:20:53.137Z,99029.77
2019-01-29T13:23:22.289Z,99021.70
2019-01-29T13:25:51.034Z,99030.84
2019-01-29T13:28:18.949Z,99023.36
2019-01-29T13:30:47.639Z,99019.56
2019-01-29T13:33:15.617Z,99019.30
2019-01-29T13:35:44.556Z,99020.95
2019-01-29T13:38:13.834Z,99019.80
2019-01-29T13:40:45.636Z,99016.84
2019-01-29T13:43:14.347Z,99015.13
2019-01-29T13:45:43.456Z,99021.99
2019-01-29T13:48:12.165Z,99020.88
2019-01-29T13:50:46.788Z,99016.84
2019-01-29T13:53:15.548Z,99013.78
2019-01-29T13:55:43.502Z,99015.51
2019-01-29T13:58:12.350Z,99013.28
2019-01-29T14:00:41.256Z,99010.14
2019-01-29T14:03:10.789Z,99002.94
2019-01-29T14:05:39.519Z,99000.75
2019-01-29T14:08:07.530Z,98996.34
2019-01-29T14:10:36.417Z,98996.72
2019-01-29T14:13:05.715Z,98991.94
2019-01-29T14:15:46.035Z,98992.12
2019-01-29T14:18:15.559Z,98989.44
2019-01-29T14:20:44.343Z,98990.05
2019-01-29T14:23:12.303Z,98985.64
2019-01-29T14:25:41.042Z,98986.98
2019-01-29T14:28:09.073Z,98977.70
2019-01-29T14:30:37.890Z,98977.21
2019-01-29T14:33:07.430Z,98978.36
2019-01-29T14:35:36.160Z,98983.00
2019-01-29T14:38:49.254Z,98977.25
2019-01-29T14:41:19.791Z,98974.45
2019-01-29T14:43:54.085Z,98973.34
2019-01-29T14:46:22.945Z,98972.57
2019-01-29T14:48:51.722Z,98967.67
2019-01-29T14:51:19.692Z,98976.59
2019-01-29T14:53:48.371Z,98967.28
2019-01-29T14:56:16.627Z,98967.28
2019-01-29T14:58:45.391Z,98962.41
2019-01-29T15:01:13.493Z,98954.86
2019-01-29T15:03:45.112Z,98959.62
2019-01-29T15:06:13.849Z,98959.23
2019-01-29T15:08:41.877Z,98952.06
2019-01-29T15:11:10.655Z,98949.84
2019-01-29T15:13:39.401Z,98838.66
2019-01-29T15:16:25.874Z,98944.48
2019-01-29T15:18:59.221Z,98941.06
2019-01-29T15:21:27.939Z,98943.25
2019-01-29T15:23:56.124Z,98940.19
2019-01-29T15:26:24.749Z,98848.95
2019-01-29T15:28:52.735Z,98933.98
2019-01-29T15:31:21.444Z,98937.62
2019-01-29T15:33:49.365Z,98937.62
2019-01-29T15:36:18.034Z,98937.23
2019-01-29T15:38:46.215Z,98933.21
2019-01-29T15:41:15.081Z,98929.69
2019-01-29T15:43:43.779Z,98922.09
2019-01-29T15:46:12.590Z,98918.08
2019-01-29T15:48:40.506Z,98906.92
2019-01-29T15:51:09.352Z,98911.94
2019-01-29T15:53:40.360Z,98907.16
2019-01-29T15:56:10.103Z,98908.88
2019-01-29T15:58:38.779Z,98901.67
2019-01-29T16:01:07.458Z,98898.53
2019-01-29T16:03:35.477Z,98900.22
2019-01-29T16:06:04.193Z,98898.88
2019-01-29T16:08:32.131Z,98898.80
2019-01-29T16:11:01.213Z,98893.70
2019-01-29T16:13:29.941Z,98898.86
2019-01-29T16:15:58.650Z,98898.38
2019-01-29T16:18:26.561Z,98900.20
2019-01-29T16:20:55.270Z,98888.13
2019-01-29T16:23:23.190Z,98885.80
2019-01-29T16:25:51.839Z,98888.48
2019-01-29T16:28:19.733Z,98881.78
2019-01-29T16:30:48.385Z,98881.70
2019-01-29T16:33:17.433Z,98873.15
2019-01-29T16:35:46.444Z,98875.83
2019-01-29T16:38:15.260Z,98880.73
2019-01-29T16:40:43.164Z,98876.59
2019-01-29T16:43:11.849Z,98878.89
2019-01-29T16:45:39.761Z,98874.11
2019-01-29T16:48:08.486Z,98867.52
2019-01-29T16:50:36.602Z,98864.45
2019-01-29T16:53:05.651Z,98870.78
2019-01-29T16:55:34.352Z,98862.27
2019-01-29T16:58:03.228Z,98860.55
2019-01-29T17:00:32.420Z,98857.48
2019-01-29T17:03:01.487Z,98853.84
2019-01-29T17:05:30.324Z,98851.53
2019-01-29T17:07:58.588Z,98858.77
2019-01-29T17:10:27.328Z,98852.83
2019-01-29T17:12:56.073Z,98842.80
2019-01-29T17:15:25.033Z,98846.69
2019-01-29T17:17:53.780Z,98847.56
2019-01-29T17:20:23.244Z,98840.50
2019-01-29T17:22:51.917Z,98842.52
2019-01-29T17:25:19.815Z,98844.00
2019-01-29T17:27:48.462Z,98833.78
2019-01-29T17:30:18.591Z,98835.30
2019-01-29T17:32:47.254Z,98839.70
2019-01-29T17:35:15.192Z,98842.53
2019-01-29T17:37:43.818Z,98833.69
2019-01-29T17:40:11.859Z,98841.87
2019-01-29T17:42:40.600Z,98837.64
2019-01-29T17:45:09.406Z,98836.63
2019-01-29T17:47:38.898Z,98835.77
2019-01-29T17:50:12.156Z,98833.45
2019-01-29T17:52:41.012Z,98833.75
2019-01-29T17:55:11.141Z,98822.72
2019-01-29T17:57:50.213Z,98825.78
2019-01-29T18:00:16.391Z,98829.11
2019-01-29T18:02:45.161Z,98815.47
2019-01-29T18:05:13.035Z,98829.98
2019-01-29T18:07:41.720Z,98826.42
2019-01-29T18:10:11.153Z,98819.26
2019-01-29T18:12:39.897Z,98823.01
2019-01-29T18:15:09.553Z,98817.94
2019-01-29T18:17:38.815Z,98812.61
2019-01-29T18:20:08.427Z,98823.61
2019-01-29T18:22:37.283Z,98819.75
2019-01-29T18:25:07.345Z,98812.06
2019-01-29T18:27:36.245Z,98812.06
2019-01-29T18:30:08.942Z,98808.55
2019-01-29T18:32:38.110Z,98805.98
2019-01-29T18:35:07.564Z,98804.89
2019-01-29T18:37:36.485Z,98799.36
2019-01-29T18:40:06.756Z,98798.64
2019-01-29T18:42:35.490Z,98794.90
2019-01-29T18:45:04.918Z,98797.34
2019-01-29T18:47:33.599Z,98792.72
2019-01-29T18:50:01.916Z,98788.81
2019-01-29T18:52:30.576Z,98784.78
2019-01-29T18:54:59.301Z,98782.88
2019-01-29T18:57:27.720Z,98792.06
2019-01-29T18:59:57.206Z,98780.81
2019-01-29T19:02:26.025Z,98771.72
2019-01-29T19:04:54.727Z,98772.86
2019-01-29T19:07:22.617Z,98770.64
2019-01-29T19:09:51.549Z,98770.02
2019-01-29T19:12:20.233Z,98769.13
2019-01-29T19:14:48.244Z,98765.11
2019-01-29T19:17:16.939Z,98764.77
2019-01-29T19:19:44.846Z,98770.72
2019-01-29T19:22:13.473Z,98770.56
2019-01-29T19:24:41.382Z,98765.19
2019-01-29T19:27:10.082Z,98767.50
2019-01-29T19:29:38.810Z,98759.19
2019-01-29T19:32:06.829Z,98764.67
2019-01-29T19:34:35.969Z,98755.77
2019-01-29T19:37:04.690Z,98758.55
2019-01-29T19:39:32.983Z,98757.08
2019-01-29T19:42:01.661Z,98758.42
2019-01-29T19:44:29.567Z,98753.89
2019-01-29T19:46:58.859Z,98756.88
2019-01-29T19:49:27.589Z,98751.29
2019-01-29T19:51:55.990Z,98745.67
2019-01-29T19:54:24.781Z,98745.58
2019-01-29T19:56:53.485Z,98743.61
2019-01-29T19:59:21.730Z,98744.91
2019-01-29T20:01:50.426Z,98740.41
2019-01-29T20:04:18.862Z,98742.28
2019-01-29T20:06:47.481Z,98743.81
2019-01-29T20:09:16.274Z,98743.50
2019-01-29T20:11:45.018Z,98747.43
2019-01-29T20:14:12.889Z,98749.17
2019-01-29T20:16:41.494Z,98745.51
2019-01-29T20:19:09.473Z,98752.98
2019-01-29T20:21:38.149Z,98744.27
2019-01-29T20:24:06.845Z,98742.20
2019-01-29T20:26:34.767Z,98744.39
2019-01-29T20:29:03.671Z,98736.45
2019-01-29T20:31:32.748Z,98739.04
2019-01-29T20:34:01.483Z,98735.23
2019-01-29T20:36:30.188Z,98731.80
2019-01-29T20:38:58.381Z,98728.39
2019-01-29T20:41:27.018Z,98719.47
2019-01-29T20:43:55.799Z,98718.14
2019-01-29T20:46:24.782Z,98706.75
2019-01-29T20:48:53.642Z,98711.61
2019-01-29T20:51:22.642Z,98705.98
2019-01-29T20:53:51.455Z,98696.85
2019-01-29T20:56:20.161Z,98695.16
2019-01-29T20:58:52.755Z,98691.61
2019-01-29T21:01:18.801Z,98689.52
2019-01-29T21:03:47.525Z,98691.34
2019-01-29T21:06:15.939Z,98687.09
2019-01-29T21:08:46.031Z,98690.14
2019-01-29T21:11:14.829Z,98686.61
2019-01-29T21:13:44.904Z,98682.20
2019-01-29T21:16:13.917Z,98681.84
2019-01-29T21:18:42.629Z,98664.84
2019-01-29T21:21:11.057Z,98674.39
2019-01-29T21:23:41.178Z,98674.87
2019-01-29T21:26:09.887Z,98670.47
2019-01-29T21:28:38.908Z,98671.11
2019-01-29T21:31:07.966Z,98672.09
2019-01-29T21:33:38.243Z,98675.13
2019-01-29T21:36:07.092Z,98673.31
2019-01-29T21:38:36.511Z,98672.83
2019-01-29T21:41:05.330Z,98671.56
2019-01-29T21:43:34.192Z,98664.84
2019-01-29T21:46:02.920Z,98661.81
2019-01-29T21:48:31.642Z,98666.44
2019-01-29T21:50:59.522Z,98661.66
2019-01-29T21:53:28.162Z,98662.16
2019-01-29T21:55:57.191Z,98663.38
2019-01-29T21:58:26.274Z,98652.75
2019-01-29T22:00:56.030Z,98656.43
2019-01-29T22:03:24.825Z,98658.27
2019-01-29T22:05:53.535Z,98655.20
2019-01-29T22:08:21.431Z,98650.42
2019-01-29T22:10:50.053Z,98644.41
2019-01-29T22:13:18.797Z,98646.77
2019-01-29T22:15:46.866Z,98647.59
2019-01-29T22:18:15.795Z,98651.99
2019-01-29T22:20:44.513Z,98640.64
2019-01-29T22:23:12.414Z,98632.69
2019-01-29T22:25:41.097Z,98633.42
2019-01-29T22:28:11.100Z,98626.20
2019-01-29T22:30:41.731Z,98628.88
2019-01-29T22:33:10.872Z,98624.73
2019-01-29T22:35:40.268Z,98623.77
2019-01-29T22:38:08.972Z,98616.45
2019-01-29T22:40:36.862Z,98612.16
2019-01-29T22:43:05.870Z,98610.95
2019-01-29T22:45:34.562Z,98612.41
2019-01-29T22:48:04.640Z,98611.70
2019-01-29T22:50:35.436Z,98607.91
2019-01-29T22:53:04.168Z,98602.27
2019-01-29T22:55:32.877Z,98602.27
2019-01-29T22:58:01.612Z,98601.06
2019-01-29T23:00:47.537Z,98606.69
2019-01-29T23:03:17.106Z,98607.05
2019-01-29T23:05:46.878Z,98595.44
2019-01-29T23:08:15.899Z,98598.87
2019-01-29T23:10:44.596Z,98592.85
2019-01-29T23:13:12.514Z,98595.77
2019-01-29T23:15:41.146Z,98584.95
2019-01-29T23:18:10.250Z,98584.32
2019-01-29T23:20:39.065Z,98585.77
2019-01-29T23:23:07.783Z,98581.84
2019-01-29T23:25:35.686Z,98582.33
2019-01-29T23:28:04.331Z,98572.77
2019-01-29T23:30:32.238Z,98571.44
2019-01-29T23:33:01.215Z,98572.75
2019-01-29T23:35:30.185Z,98572.60
2019-01-29T23:37:58.899Z,98560.86
2019-01-29T23:40:26.779Z,98561.24
2019-01-29T23:42:55.401Z,98549.85
2019-01-29T23:45:23.299Z,98545.20
2019-01-29T23:48:00.395Z,98545.08
2019-01-29T23:50:30.380Z,98541.64
2019-01-29T23:52:59.408Z,98534.81
2019-01-29T23:55:28.139Z,98532.84
2019-01-29T23:57:56.031Z,98520.98
